createdAt,value
2023-04-22T00:02:35.324Z,1007.02
2023-04-22T00:07:33.457Z,1007.13
2023-04-22T00:12:35.742Z,1006.96
2023-04-22T00:17:32.031Z,1006.99
2023-04-22T00:22:32.290Z,1006.83
2023-04-22T00:27:31.547Z,1006.94
2023-04-22T00:32:29.838Z,1007.01
2023-04-22T00:37:28.101Z,1006.90
2023-04-22T00:42:28.384Z,1006.96
2023-04-22T00:47:27.648Z,1006.98
2023-04-22T00:52:28.900Z,1007.04
2023-04-22T00:57:26.166Z,1007.02
2023-04-22T01:02:26.506Z,1007.02
2023-04-22T01:07:24.601Z,1007.04
2023-04-22T01:12:23.942Z,1006.98
2023-04-22T01:17:23.224Z,1006.97
2023-04-22T01:22:22.512Z,1006.91
2023-04-22T01:27:21.815Z,1006.92
2023-04-22T01:32:22.201Z,1006.92
2023-04-22T01:37:21.276Z,1006.97
2023-04-22T01:42:19.540Z,1006.91
2023-04-22T01:47:18.804Z,1007.01
2023-04-22T01:52:18.040Z,1007.08
2023-04-22T01:57:18.307Z,1007.04
2023-04-22T02:02:17.716Z,1007.04
2023-04-22T02:07:16.811Z,1006.98
2023-04-22T02:12:15.046Z,1006.99
2023-04-22T02:17:16.286Z,1007.14
2023-04-22T02:22:13.514Z,1007.12
2023-04-22T02:27:14.780Z,1007.12
2023-04-22T02:32:12.002Z,1007.15
2023-04-22T02:37:12.267Z,1007.13
2023-04-22T02:42:10.543Z,1007.11
2023-04-22T02:47:10.810Z,1007.09
2023-04-22T02:52:09.059Z,1007.08
2023-04-22T02:57:08.333Z,1007.15
2023-04-22T03:02:10.955Z,1007.18
2023-04-22T03:07:07.832Z,1007.05
2023-04-22T03:12:06.129Z,1007.03
2023-04-22T03:17:05.422Z,1007.09
2023-04-22T03:22:04.696Z,1007.14
2023-04-22T03:27:04.005Z,1007.04
2023-04-22T03:32:04.347Z,1007.05
2023-04-22T03:37:03.651Z,1007.11
2023-04-22T03:42:01.898Z,1007.00
2023-04-22T03:47:02.149Z,1007.00
2023-04-22T03:52:01.449Z,1007.10
2023-04-22T03:57:00.690Z,1007.04
2023-04-22T04:02:00.968Z,1006.98
2023-04-22T04:06:58.242Z,1007.01
2023-04-22T04:11:58.507Z,1007.12
2023-04-22T04:16:56.779Z,1007.18
2023-04-22T04:21:58.066Z,1007.13
2023-04-22T04:26:56.312Z,1007.19
2023-04-22T04:31:54.561Z,1007.23
2023-04-22T04:36:54.851Z,1007.18
2023-04-22T04:41:53.118Z,1007.33
2023-04-22T04:46:53.436Z,1007.24
2023-04-22T04:51:51.705Z,1007.25
2023-04-22T04:56:50.965Z,1007.30
2023-04-22T05:01:50.305Z,1007.27
2023-04-22T05:06:49.572Z,1007.32
2023-04-22T05:11:48.857Z,1007.29
2023-04-22T05:16:48.225Z,1007.42
2023-04-22T05:21:47.322Z,1007.45
2023-04-22T05:26:47.579Z,1007.50
2023-04-22T05:31:45.881Z,1007.50
2023-04-22T05:36:45.102Z,1007.69
2023-04-22T05:41:46.724Z,1007.57
2023-04-22T05:46:43.607Z,1007.73
2023-04-22T05:51:42.861Z,1007.48
2023-04-22T05:56:43.118Z,1007.75
2023-04-22T06:01:42.427Z,1007.66
2023-04-22T06:06:40.676Z,1007.69
2023-04-22T06:11:39.967Z,1007.77
2023-04-22T06:16:39.247Z,1007.87
2023-04-22T06:21:39.629Z,1007.89
2023-04-22T06:26:37.713Z,1008.00
2023-04-22T06:31:36.981Z,1008.03
2023-04-22T06:36:36.259Z,1008.06
2023-04-22T06:41:38.560Z,1008.04
2023-04-22T06:46:35.871Z,1008.01
2023-04-22T06:51:34.125Z,1007.95
2023-04-22T06:56:33.396Z,1007.88
2023-04-22T07:01:33.688Z,1007.93
2023-04-22T07:06:31.948Z,1007.86
2023-04-22T07:11:31.216Z,1007.91
2023-04-22T07:16:31.658Z,1007.73
2023-04-22T07:21:29.739Z,1007.73
2023-04-22T07:26:29.024Z,1007.61
2023-04-22T07:31:28.314Z,1007.55
2023-04-22T07:36:28.595Z,1007.62
2023-04-22T07:41:27.874Z,1007.55
2023-04-22T07:46:27.154Z,1007.50
2023-04-22T07:51:26.444Z,1007.55
2023-04-22T07:56:24.740Z,1007.35
2023-04-22T08:01:24.079Z,1007.43
2023-04-22T08:06:23.349Z,1007.43
2023-04-22T08:11:22.642Z,1007.46
2023-04-22T08:16:21.983Z,1007.32
2023-04-22T08:21:22.094Z,1007.29
2023-04-22T08:26:20.330Z,1007.25
2023-04-22T08:31:19.635Z,1007.31
2023-04-22T08:36:19.958Z,1007.17
2023-04-22T08:41:19.265Z,1007.25
2023-04-22T08:46:17.597Z,1007.14
2023-04-22T08:51:17.644Z,1007.16
2023-04-22T08:56:15.894Z,1007.07
2023-04-22T09:01:15.207Z,1007.14
2023-04-22T09:06:14.488Z,1007.07
2023-04-22T09:11:13.782Z,1007.06
2023-04-22T09:16:14.101Z,1007.04
2023-04-22T09:21:12.367Z,1007.07
2023-04-22T09:26:12.668Z,1007.03
2023-04-22T09:31:11.978Z,1007.10
2023-04-22T09:36:10.281Z,1007.08
2023-04-22T09:41:09.569Z,1007.10
2023-04-22T09:46:09.900Z,1007.08
2023-04-22T09:51:10.159Z,1006.99
2023-04-22T09:56:08.454Z,1006.99
2023-04-22T10:01:06.723Z,1006.97
2023-04-22T10:06:06.013Z,1007.04
2023-04-22T10:11:05.289Z,1007.01
2023-04-22T10:16:06.540Z,1007.11
2023-04-22T10:21:04.815Z,1007.02
2023-04-22T10:26:05.064Z,1007.06
2023-04-22T10:31:03.349Z,1007.05
2023-04-22T10:36:02.618Z,1007.02
2023-04-22T10:41:00.916Z,1006.93
2023-04-22T10:46:00.215Z,1006.95
2023-04-22T10:51:00.520Z,1006.88
2023-04-22T10:55:59.841Z,1006.92
2023-04-22T11:00:59.145Z,1006.88
2023-04-22T11:05:57.428Z,1006.91
2023-04-22T11:10:55.687Z,1006.97
2023-04-22T11:15:56.029Z,1006.90
2023-04-22T11:20:55.143Z,1006.85
2023-04-22T11:25:55.415Z,1006.91
2023-04-22T11:30:53.686Z,1006.77
2023-04-22T11:35:53.944Z,1006.77
2023-04-22T11:40:52.196Z,1006.74
2023-04-22T11:45:51.558Z,1006.75
2023-04-22T11:50:50.862Z,1006.69
2023-04-22T11:55:51.164Z,1006.63
2023-04-22T12:00:49.477Z,1006.59
2023-04-22T12:05:50.315Z,1006.55
2023-04-22T12:10:49.937Z,1006.55
2023-04-22T12:15:49.174Z,1006.50
2023-04-22T12:20:48.463Z,1006.44
2023-04-22T12:25:45.779Z,1006.49
2023-04-22T12:30:46.093Z,1006.51
2023-04-22T12:35:44.347Z,1006.43
2023-04-22T12:40:44.628Z,1006.55
2023-04-22T12:45:42.946Z,1006.49
2023-04-22T12:50:42.222Z,1006.48
2023-04-22T12:55:42.502Z,1006.43
2023-04-22T13:00:41.746Z,1006.53
2023-04-22T13:05:40.054Z,1006.46
2023-04-22T13:10:39.370Z,1006.46
2023-04-22T13:15:37.661Z,1006.49
2023-04-22T13:20:38.967Z,1006.44
2023-04-22T13:25:37.241Z,1006.41
2023-04-22T13:30:36.592Z,1006.44
2023-04-22T13:35:36.862Z,1006.39
2023-04-22T13:40:35.126Z,1006.40
2023-04-22T13:45:37.496Z,1006.35
2023-04-22T13:50:33.748Z,1006.28
2023-04-22T13:55:33.067Z,1006.32
2023-04-22T14:00:31.412Z,1006.38
2023-04-22T14:05:31.693Z,1006.36
2023-04-22T14:10:31.024Z,1006.32
2023-04-22T14:15:30.340Z,1006.39
2023-04-22T14:20:29.615Z,1006.46
2023-04-22T14:25:28.963Z,1006.50
2023-04-22T14:30:30.235Z,1006.37
2023-04-22T14:35:28.525Z,1006.32
2023-04-22T14:40:27.816Z,1006.35
2023-04-22T14:45:26.113Z,1006.43
2023-04-22T14:50:26.441Z,1006.33
2023-04-22T14:55:25.730Z,1006.33
2023-04-22T15:00:25.017Z,1006.38
2023-04-22T15:05:25.307Z,1006.48
2023-04-22T15:10:22.626Z,1006.44
2023-04-22T15:15:21.885Z,1006.46
2023-04-22T15:20:22.196Z,1006.42
2023-04-22T15:25:20.483Z,1006.36
2023-04-22T15:30:20.764Z,1006.54
2023-04-22T15:35:19.037Z,1006.54
2023-04-22T15:40:18.356Z,1006.54
2023-04-22T15:45:17.698Z,1006.50
2023-04-22T15:50:17.928Z,1006.58
2023-04-22T15:55:16.179Z,1006.62
2023-04-22T16:00:15.484Z,1006.56
2023-04-22T16:05:15.060Z,1006.61
2023-04-22T16:10:13.965Z,1006.60
2023-04-22T16:15:15.238Z,1006.73
2023-04-22T16:20:12.522Z,1006.88
2023-04-22T16:25:12.777Z,1006.88
2023-04-22T16:30:13.751Z,1007.04
2023-04-22T16:35:10.280Z,1007.08
2023-04-22T16:40:09.555Z,1007.09
2023-04-22T16:45:08.826Z,1007.09
2023-04-22T16:50:10.108Z,1007.11
2023-04-22T16:55:09.337Z,1007.11
2023-04-22T17:00:07.596Z,1007.13
2023-04-22T17:05:06.849Z,1007.21
2023-04-22T17:10:05.250Z,1007.33
2023-04-22T17:15:04.515Z,1007.32
2023-04-22T17:20:04.782Z,1007.41
2023-04-22T17:25:02.927Z,1007.34
2023-04-22T17:30:03.021Z,1007.21
2023-04-22T17:35:01.266Z,1007.22
2023-04-22T17:39:59.595Z,1007.31
2023-04-22T17:45:00.858Z,1007.40
2023-04-22T17:49:59.141Z,1007.39
2023-04-22T17:55:00.588Z,1007.22
2023-04-22T17:59:57.630Z,1007.13
2023-04-22T18:04:56.905Z,1007.12
2023-04-22T18:09:56.189Z,1007.15
2023-04-22T18:14:55.533Z,1007.22
2023-04-22T18:20:06.339Z,1007.30
2023-04-22T18:24:54.994Z,1007.37
2023-04-22T18:29:53.231Z,1007.51
2023-04-22T18:34:52.493Z,1007.51
2023-04-22T18:39:53.786Z,1007.54
2023-04-22T18:44:52.074Z,1007.70
2023-04-22T18:49:50.343Z,1007.64
2023-04-22T18:54:50.620Z,1007.75
2023-04-22T18:59:50.123Z,1007.79
2023-04-22T19:04:49.148Z,1007.83
2023-04-22T19:09:47.600Z,1007.97
2023-04-22T19:14:46.541Z,1007.97
2023-04-22T19:19:45.837Z,1007.82
2023-04-22T19:24:46.117Z,1007.82
2023-04-22T19:29:44.690Z,1007.83
2023-04-22T19:34:43.948Z,1007.67
2023-04-22T19:39:44.227Z,1007.79
2023-04-22T19:44:42.514Z,1007.82
2023-04-22T19:49:42.955Z,1007.68
2023-04-22T19:54:43.079Z,1007.73
2023-04-22T19:59:42.307Z,1007.79
2023-04-22T20:04:39.493Z,1007.79
2023-04-22T20:09:39.837Z,1007.68
2023-04-22T20:14:37.806Z,1007.63
2023-04-22T20:19:38.285Z,1007.70
2023-04-22T20:24:37.304Z,1007.64
2023-04-22T20:29:35.586Z,1007.64
2023-04-22T20:34:34.884Z,1007.72
2023-04-22T20:39:34.224Z,1007.72
2023-04-22T20:44:35.516Z,1007.69
2023-04-22T20:49:51.859Z,1007.55
2023-04-22T20:54:33.076Z,1007.50
2023-04-22T20:59:31.206Z,1007.62
2023-04-22T21:04:31.460Z,1007.74
2023-04-22T21:09:29.531Z,1007.76
2023-04-22T21:14:28.856Z,1007.68
2023-04-22T21:19:28.213Z,1007.71
2023-04-22T21:24:28.292Z,1007.72
2023-04-22T21:29:26.584Z,1007.80
2023-04-22T21:34:27.878Z,1007.82
2023-04-22T21:39:27.156Z,1007.84
2023-04-22T21:44:25.474Z,1007.83
2023-04-22T21:49:25.782Z,1007.74
2023-04-22T21:54:23.256Z,1007.77
2023-04-22T21:59:22.340Z,1007.80
2023-04-22T22:04:22.889Z,1007.87
2023-04-22T22:09:19.943Z,1007.79
2023-04-22T22:14:21.238Z,1007.76
2023-04-22T22:19:19.348Z,1007.77
2023-04-22T22:24:18.841Z,1007.73
2023-04-22T22:29:17.958Z,1007.71
2023-04-22T22:34:21.569Z,1007.69
2023-04-22T22:39:16.464Z,1007.67
2023-04-22T22:44:16.775Z,1007.63
2023-04-22T22:49:15.098Z,1007.69
2023-04-22T22:54:15.516Z,1007.69
2023-04-22T22:59:14.641Z,1007.76
2023-04-22T23:04:14.022Z,1007.78
2023-04-22T23:09:13.097Z,1007.80
2023-04-22T23:14:11.228Z,1007.77
2023-04-22T23:19:10.368Z,1007.76
2023-04-22T23:24:09.646Z,1007.77
2023-04-22T23:29:08.944Z,1007.77
2023-04-22T23:34:08.214Z,1007.78
2023-04-22T23:39:07.488Z,1007.81
2023-04-22T23:44:06.768Z,1007.82
2023-04-22T23:49:08.132Z,1007.85
2023-04-22T23:54:05.269Z,1007.84
2023-04-22T23:59:04.355Z,1007.84
